sensor_id;sensor_type;location;lat;lon;timestamp;P1;durP1;ratioP1;P2;durP2;ratioP2
38425;SDS011;24210;51.460;6.148;2022-12-29T00:01:13;0.90;;;0.50;;
38425;SDS011;24210;51.460;6.148;2022-12-29T00:03:38;0.87;;;0.77;;
38425;SDS011;24210;51.460;6.148;2022-12-29T00:06:03;0.80;;;0.40;;
38425;SDS011;24210;51.460;6.148;2022-12-29T00:08:28;0.53;;;0.53;;
38425;SDS011;24210;51.460;6.148;2022-12-29T00:11:06;1.63;;;0.50;;
38425;SDS011;24210;51.460;6.148;2022-12-29T00:13:32;0.70;;;0.70;;
38425;SDS011;24210;51.460;6.148;2022-12-29T00:16:16;1.20;;;0.90;;
38425;SDS011;24210;51.460;6.148;2022-12-29T00:18:41;2.33;;;0.73;;
38425;SDS011;24210;51.460;6.148;2022-12-29T00:21:07;0.67;;;0.67;;
38425;SDS011;24210;51.460;6.148;2022-12-29T00:23:51;0.88;;;0.88;;
38425;SDS011;24210;51.460;6.148;2022-12-29T00:26:53;1.15;;;1.05;;
38425;SDS011;24210;51.460;6.148;2022-12-29T00:29:38;1.08;;;0.73;;
38425;SDS011;24210;51.460;6.148;2022-12-29T00:32:22;1.20;;;0.82;;
38425;SDS011;24210;51.460;6.148;2022-12-29T00:35:08;1.55;;;0.57;;
38425;SDS011;24210;51.460;6.148;2022-12-29T00:37:35;0.60;;;0.60;;
38425;SDS011;24210;51.460;6.148;2022-12-29T00:40:19;0.88;;;0.80;;
38425;SDS011;24210;51.460;6.148;2022-12-29T00:43:03;0.90;;;0.65;;
38425;SDS011;24210;51.460;6.148;2022-12-29T00:45:47;0.88;;;0.70;;
38425;SDS011;24210;51.460;6.148;2022-12-29T00:48:12;0.90;;;0.53;;
38425;SDS011;24210;51.460;6.148;2022-12-29T00:50:38;1.17;;;0.70;;
38425;SDS011;24210;51.460;6.148;2022-12-29T00:53:03;1.13;;;1.03;;
38425;SDS011;24210;51.460;6.148;2022-12-29T00:55:28;0.70;;;0.70;;
38425;SDS011;24210;51.460;6.148;2022-12-29T00:57:54;0.53;;;0.50;;
38425;SDS011;24210;51.460;6.148;2022-12-29T01:00:19;1.27;;;0.30;;
38425;SDS011;24210;51.460;6.148;2022-12-29T01:02:44;0.40;;;0.40;;
38425;SDS011;24210;51.460;6.148;2022-12-29T01:05:09;0.70;;;0.70;;
38425;SDS011;24210;51.460;6.148;2022-12-29T01:07:35;1.00;;;0.57;;
38425;SDS011;24210;51.460;6.148;2022-12-29T01:10:00;0.37;;;0.23;;
38425;SDS011;24210;51.460;6.148;2022-12-29T01:12:37;2.10;;;0.40;;
38425;SDS011;24210;51.460;6.148;2022-12-29T01:15:06;1.02;;;0.52;;
38425;SDS011;24210;51.460;6.148;2022-12-29T01:17:31;1.00;;;0.70;;
38425;SDS011;24210;51.460;6.148;2022-12-29T01:19:56;0.43;;;0.43;;
38425;SDS011;24210;51.460;6.148;2022-12-29T01:22:21;1.67;;;0.47;;
38425;SDS011;24210;51.460;6.148;2022-12-29T01:24:47;1.10;;;0.50;;
38425;SDS011;24210;51.460;6.148;2022-12-29T01:27:12;0.80;;;0.70;;
38425;SDS011;24210;51.460;6.148;2022-12-29T01:29:37;0.47;;;0.20;;
38425;SDS011;24210;51.460;6.148;2022-12-29T01:32:02;0.43;;;0.40;;
38425;SDS011;24210;51.460;6.148;2022-12-29T01:34:28;0.80;;;0.40;;
38425;SDS011;24210;51.460;6.148;2022-12-29T01:36:53;2.10;;;1.07;;
38425;SDS011;24210;51.460;6.148;2022-12-29T01:39:19;2.37;;;0.53;;
38425;SDS011;24210;51.460;6.148;2022-12-29T01:41:44;0.50;;;0.50;;
38425;SDS011;24210;51.460;6.148;2022-12-29T01:46:53;1.05;;;0.63;;
38425;SDS011;24210;51.460;6.148;2022-12-29T01:49:20;0.43;;;0.30;;
38425;SDS011;24210;51.460;6.148;2022-12-29T01:51:57;1.98;;;0.38;;
38425;SDS011;24210;51.460;6.148;2022-12-29T01:54:27;0.95;;;0.45;;
38425;SDS011;24210;51.460;6.148;2022-12-29T01:56:53;0.52;;;0.15;;
38425;SDS011;24210;51.460;6.148;2022-12-29T01:59:21;0.63;;;0.25;;
38425;SDS011;24210;51.460;6.148;2022-12-29T02:01:47;0.30;;;0.20;;
38425;SDS011;24210;51.460;6.148;2022-12-29T02:04:13;0.53;;;0.17;;
38425;SDS011;24210;51.460;6.148;2022-12-29T02:06:45;1.60;;;0.33;;
38425;SDS011;24210;51.460;6.148;2022-12-29T02:09:12;1.00;;;0.30;;
38425;SDS011;24210;51.460;6.148;2022-12-29T02:11:38;4.17;;;0.67;;
38425;SDS011;24210;51.460;6.148;2022-12-29T02:14:08;0.10;;;0.10;;
38425;SDS011;24210;51.460;6.148;2022-12-29T02:21:51;0.75;;;0.40;;
38425;SDS011;24210;51.460;6.148;2022-12-29T02:31:54;0.52;;;0.22;;
38425;SDS011;24210;51.460;6.148;2022-12-29T02:46:44;2.10;;;0.90;;
38425;SDS011;24210;51.460;6.148;2022-12-29T02:51:40;4.13;;;0.50;;
38425;SDS011;24210;51.460;6.148;2022-12-29T02:54:06;0.52;;;0.28;;
38425;SDS011;24210;51.460;6.148;2022-12-29T02:56:50;0.50;;;0.40;;
38425;SDS011;24210;51.460;6.148;2022-12-29T02:59:15;4.87;;;0.60;;
38425;SDS011;24210;51.460;6.148;2022-12-29T03:09:28;1.00;;;0.40;;
38425;SDS011;24210;51.460;6.148;2022-12-29T03:12:03;1.85;;;0.50;;
38425;SDS011;24210;51.460;6.148;2022-12-29T03:14:36;0.47;;;0.20;;
38425;SDS011;24210;51.460;6.148;2022-12-29T03:19:56;3.53;;;0.63;;
38425;SDS011;24210;51.460;6.148;2022-12-29T03:22:25;0.70;;;0.28;;
38425;SDS011;24210;51.460;6.148;2022-12-29T03:24:54;1.75;;;0.30;;
38425;SDS011;24210;51.460;6.148;2022-12-29T03:27:25;1.38;;;0.22;;
38425;SDS011;24210;51.460;6.148;2022-12-29T03:29:53;1.10;;;0.30;;
38425;SDS011;24210;51.460;6.148;2022-12-29T03:32:23;2.22;;;0.82;;
38425;SDS011;24210;51.460;6.148;2022-12-29T03:34:49;2.08;;;0.50;;
38425;SDS011;24210;51.460;6.148;2022-12-29T03:37:17;0.00;;;0.00;;
38425;SDS011;24210;51.460;6.148;2022-12-29T03:39:43;1.70;;;0.10;;
38425;SDS011;24210;51.460;6.148;2022-12-29T03:42:21;0.10;;;0.00;;
38425;SDS011;24210;51.460;6.148;2022-12-29T03:44:48;0.00;;;0.00;;
38425;SDS011;24210;51.460;6.148;2022-12-29T03:47:18;0.95;;;0.40;;
38425;SDS011;24210;51.460;6.148;2022-12-29T03:49:43;0.20;;;0.10;;
38425;SDS011;24210;51.460;6.148;2022-12-29T03:52:08;0.67;;;0.00;;
38425;SDS011;24210;51.460;6.148;2022-12-29T03:54:33;2.87;;;0.20;;
38425;SDS011;24210;51.460;6.148;2022-12-29T03:56:58;0.63;;;0.03;;
38425;SDS011;24210;51.460;6.148;2022-12-29T03:59:24;0.43;;;0.27;;
38425;SDS011;24210;51.460;6.148;2022-12-29T04:01:49;0.00;;;0.00;;
38425;SDS011;24210;51.460;6.148;2022-12-29T04:04:14;1.37;;;0.03;;
38425;SDS011;24210;51.460;6.148;2022-12-29T04:06:40;2.57;;;0.73;;
38425;SDS011;24210;51.460;6.148;2022-12-29T04:09:05;0.77;;;0.33;;
38425;SDS011;24210;51.460;6.148;2022-12-29T04:11:31;0.30;;;0.00;;
38425;SDS011;24210;51.460;6.148;2022-12-29T04:13:56;0.13;;;0.00;;
38425;SDS011;24210;51.460;6.148;2022-12-29T04:16:21;0.00;;;0.00;;
38425;SDS011;24210;51.460;6.148;2022-12-29T04:18:46;0.07;;;0.00;;
38425;SDS011;24210;51.460;6.148;2022-12-29T04:21:12;0.33;;;0.00;;
38425;SDS011;24210;51.460;6.148;2022-12-29T04:23:38;0.47;;;0.00;;
38425;SDS011;24210;51.460;6.148;2022-12-29T04:26:05;0.82;;;0.10;;
38425;SDS011;24210;51.460;6.148;2022-12-29T04:28:32;1.08;;;0.40;;
38425;SDS011;24210;51.460;6.148;2022-12-29T04:30:57;1.33;;;0.10;;
38425;SDS011;24210;51.460;6.148;2022-12-29T04:33:22;0.33;;;0.07;;
38425;SDS011;24210;51.460;6.148;2022-12-29T04:35:48;0.40;;;0.20;;
38425;SDS011;24210;51.460;6.148;2022-12-29T04:38:13;3.57;;;0.83;;
38425;SDS011;24210;51.460;6.148;2022-12-29T04:40:39;1.43;;;0.10;;
38425;SDS011;24210;51.460;6.148;2022-12-29T04:43:04;1.00;;;0.10;;
38425;SDS011;24210;51.460;6.148;2022-12-29T04:45:30;1.57;;;0.10;;
38425;SDS011;24210;51.460;6.148;2022-12-29T04:47:55;0.40;;;0.00;;
38425;SDS011;24210;51.460;6.148;2022-12-29T04:50:20;2.80;;;0.17;;
38425;SDS011;24210;51.460;6.148;2022-12-29T04:52:45;0.47;;;0.10;;
38425;SDS011;24210;51.460;6.148;2022-12-29T04:55:11;2.23;;;0.20;;
38425;SDS011;24210;51.460;6.148;2022-12-29T04:57:36;0.93;;;0.00;;
38425;SDS011;24210;51.460;6.148;2022-12-29T05:00:01;0.67;;;0.10;;
38425;SDS011;24210;51.460;6.148;2022-12-29T05:02:27;1.25;;;0.00;;
38425;SDS011;24210;51.460;6.148;2022-12-29T05:04:52;3.77;;;0.10;;
38425;SDS011;24210;51.460;6.148;2022-12-29T05:07:18;0.80;;;0.10;;
38425;SDS011;24210;51.460;6.148;2022-12-29T05:09:43;0.93;;;0.20;;
38425;SDS011;24210;51.460;6.148;2022-12-29T05:12:08;1.33;;;0.17;;
38425;SDS011;24210;51.460;6.148;2022-12-29T05:14:34;1.63;;;0.33;;
38425;SDS011;24210;51.460;6.148;2022-12-29T05:16:59;0.17;;;0.10;;
38425;SDS011;24210;51.460;6.148;2022-12-29T05:19:24;2.33;;;0.10;;
38425;SDS011;24210;51.460;6.148;2022-12-29T05:21:49;0.53;;;0.10;;
38425;SDS011;24210;51.460;6.148;2022-12-29T05:24:14;1.60;;;0.10;;
38425;SDS011;24210;51.460;6.148;2022-12-29T05:26:40;1.13;;;0.20;;
38425;SDS011;24210;51.460;6.148;2022-12-29T05:29:05;1.33;;;0.10;;
38425;SDS011;24210;51.460;6.148;2022-12-29T05:31:30;3.63;;;0.67;;
38425;SDS011;24210;51.460;6.148;2022-12-29T05:33:56;3.33;;;0.10;;
38425;SDS011;24210;51.460;6.148;2022-12-29T05:36:21;1.80;;;0.20;;
38425;SDS011;24210;51.460;6.148;2022-12-29T05:38:46;0.87;;;0.10;;
38425;SDS011;24210;51.460;6.148;2022-12-29T05:41:11;1.03;;;0.10;;
38425;SDS011;24210;51.460;6.148;2022-12-29T05:43:37;1.60;;;0.50;;
38425;SDS011;24210;51.460;6.148;2022-12-29T05:46:02;0.00;;;0.00;;
38425;SDS011;24210;51.460;6.148;2022-12-29T05:48:27;2.37;;;0.20;;
38425;SDS011;24210;51.460;6.148;2022-12-29T05:50:53;2.10;;;0.00;;
38425;SDS011;24210;51.460;6.148;2022-12-29T05:53:18;1.03;;;0.20;;
38425;SDS011;24210;51.460;6.148;2022-12-29T05:55:44;0.73;;;0.10;;
38425;SDS011;24210;51.460;6.148;2022-12-29T05:58:09;2.77;;;0.30;;
38425;SDS011;24210;51.460;6.148;2022-12-29T06:00:35;2.80;;;0.13;;
38425;SDS011;24210;51.460;6.148;2022-12-29T06:03:00;2.33;;;0.30;;
38425;SDS011;24210;51.460;6.148;2022-12-29T06:05:25;1.13;;;0.40;;
38425;SDS011;24210;51.460;6.148;2022-12-29T06:07:50;4.03;;;0.57;;
38425;SDS011;24210;51.460;6.148;2022-12-29T06:10:16;2.07;;;0.27;;
38425;SDS011;24210;51.460;6.148;2022-12-29T06:12:41;1.43;;;0.30;;
38425;SDS011;24210;51.460;6.148;2022-12-29T06:15:06;0.90;;;0.20;;
38425;SDS011;24210;51.460;6.148;2022-12-29T06:17:31;1.33;;;0.43;;
38425;SDS011;24210;51.460;6.148;2022-12-29T06:19:57;0.50;;;0.40;;
38425;SDS011;24210;51.460;6.148;2022-12-29T06:22:22;3.07;;;0.37;;
38425;SDS011;24210;51.460;6.148;2022-12-29T06:24:47;0.67;;;0.10;;
38425;SDS011;24210;51.460;6.148;2022-12-29T06:27:12;1.80;;;0.77;;
38425;SDS011;24210;51.460;6.148;2022-12-29T06:29:38;0.90;;;0.00;;
38425;SDS011;24210;51.460;6.148;2022-12-29T06:34:30;2.50;;;0.22;;
38425;SDS011;24210;51.460;6.148;2022-12-29T06:36:56;4.27;;;0.83;;
38425;SDS011;24210;51.460;6.148;2022-12-29T06:39:21;4.80;;;0.90;;
38425;SDS011;24210;51.460;6.148;2022-12-29T06:41:46;4.47;;;0.27;;
38425;SDS011;24210;51.460;6.148;2022-12-29T06:44:11;3.17;;;0.67;;
38425;SDS011;24210;51.460;6.148;2022-12-29T06:46:36;1.67;;;0.10;;
38425;SDS011;24210;51.460;6.148;2022-12-29T06:49:02;3.07;;;0.40;;
38425;SDS011;24210;51.460;6.148;2022-12-29T06:51:27;4.23;;;0.30;;
38425;SDS011;24210;51.460;6.148;2022-12-29T06:53:52;1.97;;;0.23;;
38425;SDS011;24210;51.460;6.148;2022-12-29T06:56:18;3.47;;;0.30;;
38425;SDS011;24210;51.460;6.148;2022-12-29T06:58:43;0.57;;;0.47;;
38425;SDS011;24210;51.460;6.148;2022-12-29T07:01:08;3.67;;;0.90;;
38425;SDS011;24210;51.460;6.148;2022-12-29T07:03:33;3.67;;;0.67;;
38425;SDS011;24210;51.460;6.148;2022-12-29T07:05:59;0.97;;;0.20;;
38425;SDS011;24210;51.460;6.148;2022-12-29T07:08:24;1.23;;;0.50;;
38425;SDS011;24210;51.460;6.148;2022-12-29T07:10:49;8.93;;;0.30;;
38425;SDS011;24210;51.460;6.148;2022-12-29T07:13:14;0.10;;;0.10;;
38425;SDS011;24210;51.460;6.148;2022-12-29T07:15:40;2.17;;;0.20;;
38425;SDS011;24210;51.460;6.148;2022-12-29T07:18:05;2.40;;;0.10;;
38425;SDS011;24210;51.460;6.148;2022-12-29T07:20:30;4.27;;;0.40;;
38425;SDS011;24210;51.460;6.148;2022-12-29T07:22:56;1.40;;;0.40;;
38425;SDS011;24210;51.460;6.148;2022-12-29T07:25:22;3.50;;;0.22;;
38425;SDS011;24210;51.460;6.148;2022-12-29T07:27:47;1.97;;;0.67;;
38425;SDS011;24210;51.460;6.148;2022-12-29T07:30:13;2.50;;;0.60;;
38425;SDS011;24210;51.460;6.148;2022-12-29T07:32:38;2.03;;;0.93;;
38425;SDS011;24210;51.460;6.148;2022-12-29T07:35:04;2.47;;;0.67;;
38425;SDS011;24210;51.460;6.148;2022-12-29T07:37:29;5.37;;;1.53;;
38425;SDS011;24210;51.460;6.148;2022-12-29T07:39:54;2.23;;;0.73;;
38425;SDS011;24210;51.460;6.148;2022-12-29T07:42:19;2.53;;;0.50;;
38425;SDS011;24210;51.460;6.148;2022-12-29T07:44:45;3.83;;;0.93;;
38425;SDS011;24210;51.460;6.148;2022-12-29T07:47:10;1.20;;;0.57;;
38425;SDS011;24210;51.460;6.148;2022-12-29T07:49:35;5.93;;;0.90;;
38425;SDS011;24210;51.460;6.148;2022-12-29T07:52:00;3.70;;;0.50;;
38425;SDS011;24210;51.460;6.148;2022-12-29T07:54:26;4.80;;;0.67;;
38425;SDS011;24210;51.460;6.148;2022-12-29T07:56:51;5.30;;;1.30;;
38425;SDS011;24210;51.460;6.148;2022-12-29T07:59:16;3.17;;;0.43;;
38425;SDS011;24210;51.460;6.148;2022-12-29T08:01:41;6.87;;;1.10;;
38425;SDS011;24210;51.460;6.148;2022-12-29T08:04:07;4.70;;;0.97;;
38425;SDS011;24210;51.460;6.148;2022-12-29T08:06:32;3.80;;;0.53;;
38425;SDS011;24210;51.460;6.148;2022-12-29T08:08:57;7.27;;;0.47;;
38425;SDS011;24210;51.460;6.148;2022-12-29T08:11:23;2.90;;;1.00;;
38425;SDS011;24210;51.460;6.148;2022-12-29T08:13:48;4.57;;;1.43;;
38425;SDS011;24210;51.460;6.148;2022-12-29T08:16:14;3.27;;;0.90;;
38425;SDS011;24210;51.460;6.148;2022-12-29T08:18:39;14.40;;;0.83;;
38425;SDS011;24210;51.460;6.148;2022-12-29T08:21:04;5.43;;;0.47;;
38425;SDS011;24210;51.460;6.148;2022-12-29T08:23:30;6.50;;;0.60;;
38425;SDS011;24210;51.460;6.148;2022-12-29T08:26:03;3.93;;;1.47;;
38425;SDS011;24210;51.460;6.148;2022-12-29T08:28:28;3.55;;;0.57;;
38425;SDS011;24210;51.460;6.148;2022-12-29T08:30:56;2.50;;;0.60;;
38425;SDS011;24210;51.460;6.148;2022-12-29T08:33:21;2.97;;;0.93;;
38425;SDS011;24210;51.460;6.148;2022-12-29T08:35:47;3.63;;;0.70;;
38425;SDS011;24210;51.460;6.148;2022-12-29T08:38:12;4.33;;;0.70;;
38425;SDS011;24210;51.460;6.148;2022-12-29T08:40:38;17.30;;;2.83;;
38425;SDS011;24210;51.460;6.148;2022-12-29T08:43:03;4.50;;;0.77;;
38425;SDS011;24210;51.460;6.148;2022-12-29T08:45:28;6.43;;;1.10;;
38425;SDS011;24210;51.460;6.148;2022-12-29T08:47:53;5.77;;;1.17;;
38425;SDS011;24210;51.460;6.148;2022-12-29T08:50:19;4.73;;;0.53;;
38425;SDS011;24210;51.460;6.148;2022-12-29T08:52:44;3.13;;;0.70;;
38425;SDS011;24210;51.460;6.148;2022-12-29T08:55:09;2.53;;;1.00;;
38425;SDS011;24210;51.460;6.148;2022-12-29T08:57:34;3.47;;;0.60;;
38425;SDS011;24210;51.460;6.148;2022-12-29T09:00:00;13.93;;;1.70;;
38425;SDS011;24210;51.460;6.148;2022-12-29T09:02:25;4.97;;;1.03;;
38425;SDS011;24210;51.460;6.148;2022-12-29T09:04:50;7.37;;;1.40;;
38425;SDS011;24210;51.460;6.148;2022-12-29T09:07:16;4.27;;;1.43;;
38425;SDS011;24210;51.460;6.148;2022-12-29T09:09:41;2.97;;;0.67;;
38425;SDS011;24210;51.460;6.148;2022-12-29T09:12:06;8.90;;;1.53;;
38425;SDS011;24210;51.460;6.148;2022-12-29T09:14:31;3.00;;;0.40;;
38425;SDS011;24210;51.460;6.148;2022-12-29T09:16:57;2.27;;;0.80;;
38425;SDS011;24210;51.460;6.148;2022-12-29T09:19:41;3.97;;;1.13;;
38425;SDS011;24210;51.460;6.148;2022-12-29T09:22:06;4.27;;;0.67;;
38425;SDS011;24210;51.460;6.148;2022-12-29T09:24:31;4.80;;;0.70;;
38425;SDS011;24210;51.460;6.148;2022-12-29T09:26:56;5.77;;;0.70;;
38425;SDS011;24210;51.460;6.148;2022-12-29T09:29:22;11.67;;;1.20;;
38425;SDS011;24210;51.460;6.148;2022-12-29T09:31:47;7.30;;;1.87;;
38425;SDS011;24210;51.460;6.148;2022-12-29T09:34:12;8.30;;;1.37;;
38425;SDS011;24210;51.460;6.148;2022-12-29T09:36:37;2.53;;;1.37;;
38425;SDS011;24210;51.460;6.148;2022-12-29T09:39:02;2.27;;;0.33;;
38425;SDS011;24210;51.460;6.148;2022-12-29T09:41:36;0.37;;;0.20;;
38425;SDS011;24210;51.460;6.148;2022-12-29T09:44:10;5.40;;;0.88;;
38425;SDS011;24210;51.460;6.148;2022-12-29T09:46:39;7.50;;;1.02;;
38425;SDS011;24210;51.460;6.148;2022-12-29T09:49:07;6.13;;;1.02;;
38425;SDS011;24210;51.460;6.148;2022-12-29T09:51:33;3.53;;;0.57;;
38425;SDS011;24210;51.460;6.148;2022-12-29T09:54:09;5.18;;;0.75;;
38425;SDS011;24210;51.460;6.148;2022-12-29T09:56:38;4.25;;;0.88;;
38425;SDS011;24210;51.460;6.148;2022-12-29T09:59:05;7.87;;;0.90;;
38425;SDS011;24210;51.460;6.148;2022-12-29T10:02:15;2.22;;;1.45;;
38425;SDS011;24210;51.460;6.148;2022-12-29T10:04:20;5.45;;;1.52;;
38425;SDS011;24210;51.460;6.148;2022-12-29T10:07:02;5.53;;;1.07;;
38425;SDS011;24210;51.460;6.148;2022-12-29T10:09:34;2.50;;;0.63;;
38425;SDS011;24210;51.460;6.148;2022-12-29T10:12:11;3.67;;;1.13;;
38425;SDS011;24210;51.460;6.148;2022-12-29T10:17:24;2.13;;;1.10;;
38425;SDS011;24210;51.460;6.148;2022-12-29T10:22:23;5.00;;;1.40;;
38425;SDS011;24210;51.460;6.148;2022-12-29T10:24:51;4.78;;;0.68;;
38425;SDS011;24210;51.460;6.148;2022-12-29T10:29:54;5.37;;;1.03;;
38425;SDS011;24210;51.460;6.148;2022-12-29T10:34:47;8.00;;;1.48;;
38425;SDS011;24210;51.460;6.148;2022-12-29T10:37:18;9.10;;;1.27;;
38425;SDS011;24210;51.460;6.148;2022-12-29T10:39:50;6.05;;;0.77;;
38425;SDS011;24210;51.460;6.148;2022-12-29T10:44:41;5.73;;;1.60;;
38425;SDS011;24210;51.460;6.148;2022-12-29T10:47:12;3.57;;;0.87;;
38425;SDS011;24210;51.460;6.148;2022-12-29T10:49:40;5.97;;;0.95;;
38425;SDS011;24210;51.460;6.148;2022-12-29T10:52:06;7.43;;;1.45;;
38425;SDS011;24210;51.460;6.148;2022-12-29T10:54:33;9.02;;;2.15;;
38425;SDS011;24210;51.460;6.148;2022-12-29T10:57:44;6.70;;;0.95;;
38425;SDS011;24210;51.460;6.148;2022-12-29T10:59:49;1.98;;;0.50;;
38425;SDS011;24210;51.460;6.148;2022-12-29T11:02:25;5.10;;;1.13;;
38425;SDS011;24210;51.460;6.148;2022-12-29T11:07:23;10.23;;;3.20;;
38425;SDS011;24210;51.460;6.148;2022-12-29T11:09:48;6.00;;;1.10;;
38425;SDS011;24210;51.460;6.148;2022-12-29T11:12:30;6.23;;;1.03;;
38425;SDS011;24210;51.460;6.148;2022-12-29T11:17:56;8.98;;;1.48;;
38425;SDS011;24210;51.460;6.148;2022-12-29T11:20:35;4.22;;;1.15;;
38425;SDS011;24210;51.460;6.148;2022-12-29T11:23:02;6.75;;;1.63;;
38425;SDS011;24210;51.460;6.148;2022-12-29T11:25:28;8.15;;;1.33;;
38425;SDS011;24210;51.460;6.148;2022-12-29T11:28:01;2.47;;;1.00;;
38425;SDS011;24210;51.460;6.148;2022-12-29T11:30:28;4.03;;;0.90;;
38425;SDS011;24210;51.460;6.148;2022-12-29T11:32:54;10.32;;;1.58;;
38425;SDS011;24210;51.460;6.148;2022-12-29T11:37:59;8.95;;;1.73;;
38425;SDS011;24210;51.460;6.148;2022-12-29T11:40:25;3.30;;;0.73;;
38425;SDS011;24210;51.460;6.148;2022-12-29T11:42:51;4.27;;;1.03;;
38425;SDS011;24210;51.460;6.148;2022-12-29T11:47:43;4.90;;;0.80;;
38425;SDS011;24210;51.460;6.148;2022-12-29T11:50:16;7.75;;;1.23;;
38425;SDS011;24210;51.460;6.148;2022-12-29T11:52:42;6.00;;;1.10;;
38425;SDS011;24210;51.460;6.148;2022-12-29T11:55:13;7.07;;;2.30;;
38425;SDS011;24210;51.460;6.148;2022-12-29T11:57:41;7.60;;;1.17;;
38425;SDS011;24210;51.460;6.148;2022-12-29T12:00:20;9.63;;;1.03;;
38425;SDS011;24210;51.460;6.148;2022-12-29T12:07:46;7.15;;;0.80;;
38425;SDS011;24210;51.460;6.148;2022-12-29T12:12:39;3.80;;;0.80;;
38425;SDS011;24210;51.460;6.148;2022-12-29T12:15:08;4.82;;;0.98;;
38425;SDS011;24210;51.460;6.148;2022-12-29T12:18:11;10.57;;;2.35;;
38425;SDS011;24210;51.460;6.148;2022-12-29T12:23:10;4.45;;;1.23;;
38425;SDS011;24210;51.460;6.148;2022-12-29T12:25:38;4.88;;;0.82;;
38425;SDS011;24210;51.460;6.148;2022-12-29T12:28:15;10.80;;;1.20;;
38425;SDS011;24210;51.460;6.148;2022-12-29T12:30:45;8.30;;;1.73;;
38425;SDS011;24210;51.460;6.148;2022-12-29T12:33:15;5.38;;;0.85;;
38425;SDS011;24210;51.460;6.148;2022-12-29T12:35:45;3.65;;;0.50;;
38425;SDS011;24210;51.460;6.148;2022-12-29T12:41:01;10.50;;;1.30;;
38425;SDS011;24210;51.460;6.148;2022-12-29T12:51:47;8.07;;;1.63;;
38425;SDS011;24210;51.460;6.148;2022-12-29T12:57:07;6.13;;;1.08;;
38425;SDS011;24210;51.460;6.148;2022-12-29T12:59:49;9.70;;;2.10;;
38425;SDS011;24210;51.460;6.148;2022-12-29T13:07:12;5.90;;;1.43;;
38425;SDS011;24210;51.460;6.148;2022-12-29T13:09:44;7.15;;;1.45;;
38425;SDS011;24210;51.460;6.148;2022-12-29T13:12:26;8.23;;;1.02;;
38425;SDS011;24210;51.460;6.148;2022-12-29T13:18:06;6.57;;;1.45;;
38425;SDS011;24210;51.460;6.148;2022-12-29T13:20:37;4.05;;;1.17;;
38425;SDS011;24210;51.460;6.148;2022-12-29T13:38:24;14.13;;;1.92;;
38425;SDS011;24210;51.460;6.148;2022-12-29T13:40:52;6.28;;;1.48;;
38425;SDS011;24210;51.460;6.148;2022-12-29T13:43:17;8.32;;;1.15;;
38425;SDS011;24210;51.460;6.148;2022-12-29T13:48:12;3.05;;;0.77;;
38425;SDS011;24210;51.460;6.148;2022-12-29T13:50:40;8.43;;;1.58;;
38425;SDS011;24210;51.460;6.148;2022-12-29T13:58:31;7.80;;;0.90;;
38425;SDS011;24210;51.460;6.148;2022-12-29T14:09:05;6.78;;;1.55;;
38425;SDS011;24210;51.460;6.148;2022-12-29T14:11:32;2.80;;;0.50;;
38425;SDS011;24210;51.460;6.148;2022-12-29T14:13:58;9.77;;;1.20;;
38425;SDS011;24210;51.460;6.148;2022-12-29T14:18:49;5.60;;;1.00;;
38425;SDS011;24210;51.460;6.148;2022-12-29T14:23:41;5.83;;;1.40;;
38425;SDS011;24210;51.460;6.148;2022-12-29T14:31:18;7.22;;;1.23;;
38425;SDS011;24210;51.460;6.148;2022-12-29T14:36:34;3.63;;;1.02;;
38425;SDS011;24210;51.460;6.148;2022-12-29T14:38:59;8.18;;;1.80;;
38425;SDS011;24210;51.460;6.148;2022-12-29T14:41:40;5.30;;;0.70;;
38425;SDS011;24210;51.460;6.148;2022-12-29T14:46:41;4.03;;;0.93;;
38425;SDS011;24210;51.460;6.148;2022-12-29T14:49:08;3.63;;;0.65;;
38425;SDS011;24210;51.460;6.148;2022-12-29T14:51:39;3.60;;;1.10;;
38425;SDS011;24210;51.460;6.148;2022-12-29T14:56:49;6.88;;;2.40;;
38425;SDS011;24210;51.460;6.148;2022-12-29T14:59:14;5.27;;;1.30;;
38425;SDS011;24210;51.460;6.148;2022-12-29T15:01:42;5.47;;;1.00;;
38425;SDS011;24210;51.460;6.148;2022-12-29T15:04:23;6.95;;;1.60;;
38425;SDS011;24210;51.460;6.148;2022-12-29T15:06:49;7.88;;;1.25;;
38425;SDS011;24210;51.460;6.148;2022-12-29T15:09:28;4.90;;;0.90;;
38425;SDS011;24210;51.460;6.148;2022-12-29T15:11:56;3.05;;;1.27;;
38425;SDS011;24210;51.460;6.148;2022-12-29T15:16:53;3.55;;;1.10;;
38425;SDS011;24210;51.460;6.148;2022-12-29T15:19:22;6.80;;;1.77;;
38425;SDS011;24210;51.460;6.148;2022-12-29T15:21:48;3.97;;;0.98;;
38425;SDS011;24210;51.460;6.148;2022-12-29T15:24:13;6.80;;;1.63;;
38425;SDS011;24210;51.460;6.148;2022-12-29T15:26:40;5.13;;;2.90;;
38425;SDS011;24210;51.460;6.148;2022-12-29T15:29:05;8.25;;;0.90;;
38425;SDS011;24210;51.460;6.148;2022-12-29T15:31:50;5.57;;;0.98;;
38425;SDS011;24210;51.460;6.148;2022-12-29T15:34:15;7.50;;;1.13;;
38425;SDS011;24210;51.460;6.148;2022-12-29T15:36:46;6.90;;;0.82;;
38425;SDS011;24210;51.460;6.148;2022-12-29T15:39:18;5.90;;;1.13;;
38425;SDS011;24210;51.460;6.148;2022-12-29T15:41:49;6.45;;;1.35;;
38425;SDS011;24210;51.460;6.148;2022-12-29T15:44:38;3.90;;;1.63;;
38425;SDS011;24210;51.460;6.148;2022-12-29T15:47:05;5.32;;;1.10;;
38425;SDS011;24210;51.460;6.148;2022-12-29T15:49:31;9.23;;;1.92;;
38425;SDS011;24210;51.460;6.148;2022-12-29T15:51:57;5.00;;;1.93;;
38425;SDS011;24210;51.460;6.148;2022-12-29T15:54:22;9.00;;;2.60;;
38425;SDS011;24210;51.460;6.148;2022-12-29T15:56:48;9.07;;;1.37;;
38425;SDS011;24210;51.460;6.148;2022-12-29T15:59:24;3.80;;;1.08;;
38425;SDS011;24210;51.460;6.148;2022-12-29T16:01:50;3.85;;;1.35;;
38425;SDS011;24210;51.460;6.148;2022-12-29T16:04:16;11.43;;;3.20;;
38425;SDS011;24210;51.460;6.148;2022-12-29T16:06:45;6.27;;;1.00;;
38425;SDS011;24210;51.460;6.148;2022-12-29T16:09:28;8.77;;;1.60;;
38425;SDS011;24210;51.460;6.148;2022-12-29T16:11:54;6.00;;;3.58;;
38425;SDS011;24210;51.460;6.148;2022-12-29T16:14:21;10.93;;;7.90;;
38425;SDS011;24210;51.460;6.148;2022-12-29T16:16:47;9.95;;;4.25;;
38425;SDS011;24210;51.460;6.148;2022-12-29T16:19:27;7.37;;;4.37;;
38425;SDS011;24210;51.460;6.148;2022-12-29T16:21:54;7.70;;;1.60;;
38425;SDS011;24210;51.460;6.148;2022-12-29T16:24:20;10.30;;;3.60;;
38425;SDS011;24210;51.460;6.148;2022-12-29T16:26:51;9.32;;;1.60;;
38425;SDS011;24210;51.460;6.148;2022-12-29T16:29:17;7.63;;;1.05;;
38425;SDS011;24210;51.460;6.148;2022-12-29T16:31:51;4.75;;;1.60;;
38425;SDS011;24210;51.460;6.148;2022-12-29T16:36:55;2.45;;;0.98;;
38425;SDS011;24210;51.460;6.148;2022-12-29T16:39:24;4.18;;;1.40;;
38425;SDS011;24210;51.460;6.148;2022-12-29T16:41:50;3.90;;;2.00;;
38425;SDS011;24210;51.460;6.148;2022-12-29T16:44:17;3.97;;;1.43;;
38425;SDS011;24210;51.460;6.148;2022-12-29T16:47:25;3.08;;;0.73;;
38425;SDS011;24210;51.460;6.148;2022-12-29T16:49:33;5.43;;;1.73;;
38425;SDS011;24210;51.460;6.148;2022-12-29T16:54:25;2.75;;;1.15;;
38425;SDS011;24210;51.460;6.148;2022-12-29T16:56:51;6.38;;;1.52;;
38425;SDS011;24210;51.460;6.148;2022-12-29T16:59:27;3.47;;;0.83;;
38425;SDS011;24210;51.460;6.148;2022-12-29T17:01:55;5.47;;;1.35;;
38425;SDS011;24210;51.460;6.148;2022-12-29T17:04:21;2.95;;;0.95;;
38425;SDS011;24210;51.460;6.148;2022-12-29T17:06:46;2.43;;;0.60;;
38425;SDS011;24210;51.460;6.148;2022-12-29T17:09:22;4.47;;;0.70;;
38425;SDS011;24210;51.460;6.148;2022-12-29T17:11:48;2.75;;;0.70;;
38425;SDS011;24210;51.460;6.148;2022-12-29T17:16:58;2.58;;;0.70;;
38425;SDS011;24210;51.460;6.148;2022-12-29T17:19:32;6.13;;;1.35;;
38425;SDS011;24210;51.460;6.148;2022-12-29T17:21:58;5.90;;;1.40;;
38425;SDS011;24210;51.460;6.148;2022-12-29T17:24:23;6.20;;;1.83;;
38425;SDS011;24210;51.460;6.148;2022-12-29T17:26:49;5.27;;;1.70;;
38425;SDS011;24210;51.460;6.148;2022-12-29T17:29:18;7.18;;;1.45;;
38425;SDS011;24210;51.460;6.148;2022-12-29T17:31:43;8.82;;;1.13;;